Time;durP1;ratioP1;P1;durP2;ratioP2;P2;SDS_P1;SDS_P2;PMS_P1;PMS_P2;Temp;Humidity;BMP_temperature;BMP_pressure;BME280_temperature;BME280_humidity;BME280_pressure;Samples;Min_cycle;Max_cycle;Signal;HPM_P1;HPM_P2
2023/07/14 00:00:14;;;;;;;11.90;8.10;;;17.10;99.90;;;;;;5071559;28;20062;-49
2023/07/14 00:02:41;;;;;;;12.48;7.93;;;17.10;99.90;;;;;;5071342;28;20032;-47
2023/07/14 00:05:13;;;;;;;10.43;8.07;;;17.00;99.90;;;;;;5070048;28;20376;-48
2023/07/14 00:07:39;;;;;;;11.80;8.30;;;17.00;99.90;;;;;;5071392;28;20043;-49
2023/07/14 00:10:19;;;;;;;13.95;8.27;;;17.00;99.90;;;;;;5071383;28;20048;-50
2023/07/14 00:12:46;;;;;;;10.65;8.18;;;17.00;99.90;;;;;;5071332;28;20113;-49
2023/07/14 00:15:13;;;;;;;10.20;8.68;;;17.00;99.90;;;;;;5070969;28;20036;-46
2023/07/14 00:17:39;;;;;;;12.20;8.55;;;16.90;99.90;;;;;;5070979;28;20044;-46
2023/07/14 00:20:20;;;;;;;12.20;8.02;;;16.90;99.90;;;;;;5071018;28;20044;-46
2023/07/14 00:22:45;;;;;;;10.90;8.43;;;16.90;99.90;;;;;;5070232;28;20051;-49
2023/07/14 00:25:12;;;;;;;9.73;7.88;;;16.90;99.90;;;;;;5071195;28;20032;-49
2023/07/14 00:27:38;;;;;;;10.15;7.93;;;16.90;99.90;;;;;;5070625;28;20032;-51
2023/07/14 00:30:18;;;;;;;10.40;7.85;;;16.80;99.90;;;;;;5070810;28;20131;-48
2023/07/14 00:32:45;;;;;;;10.20;8.35;;;16.80;99.90;;;;;;5069663;28;20040;-49
2023/07/14 00:35:26;;;;;;;12.07;8.13;;;16.70;99.90;;;;;;5069564;28;20072;-50
2023/07/14 00:37:54;;;;;;;11.18;7.95;;;16.70;99.90;;;;;;5070498;28;20396;-47
2023/07/14 00:40:38;;;;;;;13.73;7.70;;;16.70;99.90;;;;;;5071071;28;20028;-49
2023/07/14 00:43:06;;;;;;;12.07;8.07;;;16.70;99.90;;;;;;5069364;28;20046;-46
2023/07/14 00:45:34;;;;;;;11.23;7.82;;;16.60;99.90;;;;;;5070424;28;20036;-47
2023/07/14 00:48:05;;;;;;;10.45;7.57;;;16.60;99.90;;;;;;5070183;28;20530;-48
2023/07/14 00:50:38;;;;;;;11.25;7.43;;;16.50;99.90;;;;;;5069920;28;20036;-49
2023/07/14 00:53:09;;;;;;;11.25;7.45;;;16.40;99.90;;;;;;5050550;28;20059;-50
2023/07/14 00:55:45;;;;;;;9.40;6.68;;;16.40;99.90;;;;;;5070176;28;20032;-51
2023/07/14 00:58:23;;;;;;;10.93;7.28;;;16.40;99.90;;;;;;5070462;28;20684;-50
2023/07/14 01:00:59;;;;;;;9.85;7.05;;;16.30;99.90;;;;;;5069493;28;20041;-49
2023/07/14 01:03:25;;;;;;;10.52;7.30;;;16.30;99.90;;;;;;5070878;28;20037;-49
2023/07/14 01:05:52;;;;;;;8.48;7.03;;;16.20;99.90;;;;;;5070366;28;20039;-48
2023/07/14 01:08:19;;;;;;;9.82;7.20;;;16.20;99.90;;;;;;5069069;28;20036;-50
2023/07/14 01:10:45;;;;;;;12.48;6.68;;;16.20;99.90;;;;;;5069168;28;20391;-51
2023/07/14 01:13:11;;;;;;;11.25;7.05;;;16.10;99.90;;;;;;5070566;28;20093;-50
2023/07/14 01:15:40;;;;;;;10.05;6.97;;;16.10;99.90;;;;;;5070550;28;20535;-50
2023/07/14 01:18:07;;;;;;;8.95;6.35;;;16.10;99.90;;;;;;5068587;28;20107;-48
2023/07/14 01:20:37;;;;;;;10.05;6.28;;;16.10;99.90;;;;;;5067728;28;20040;-50
2023/07/14 01:23:23;;;;;;;10.18;6.70;;;16.10;99.90;;;;;;5069809;28;20068;-46
2023/07/14 01:26:14;;;;;;;11.90;6.75;;;16.10;99.90;;;;;;5070156;28;20128;-47
2023/07/14 01:28:41;;;;;;;11.90;6.43;;;16.10;99.90;;;;;;5070195;28;20488;-48
2023/07/14 01:31:11;;;;;;;8.73;6.30;;;16.00;99.90;;;;;;5068926;28;20105;-50
2023/07/14 01:33:37;;;;;;;11.75;6.43;;;16.00;99.90;;;;;;5070306;28;20032;-50
2023/07/14 01:36:04;;;;;;;10.40;6.82;;;16.00;99.90;;;;;;5073755;28;20044;-50
2023/07/14 01:38:30;;;;;;;10.13;5.22;;;16.00;99.90;;;;;;5073989;28;20087;-49
2023/07/14 01:40:56;;;;;;;9.65;6.97;;;15.90;99.90;;;;;;5073715;28;20044;-47
2023/07/14 01:43:23;;;;;;;10.45;6.60;;;16.00;99.90;;;;;;5074103;28;20028;-48
2023/07/14 01:45:54;;;;;;;11.27;6.50;;;15.90;99.90;;;;;;5073707;28;20044;-46
2023/07/14 01:48:24;;;;;;;8.30;5.70;;;15.90;99.90;;;;;;5072582;28;20040;-48
2023/07/14 01:50:56;;;;;;;11.93;6.20;;;15.80;99.90;;;;;;5074072;28;20044;-49
2023/07/14 01:53:26;;;;;;;9.13;6.22;;;15.80;99.90;;;;;;5073457;28;20036;-49
2023/07/14 01:55:55;;;;;;;8.82;6.00;;;15.80;99.90;;;;;;5073660;28;20028;-49
2023/07/14 01:58:27;;;;;;;7.95;5.47;;;15.70;99.90;;;;;;5073304;28;20037;-51
2023/07/14 02:00:53;;;;;;;10.18;5.57;;;15.70;99.90;;;;;;5072164;28;20028;-47
2023/07/14 02:03:41;;;;;;;11.57;6.25;;;15.70;99.90;;;;;;5071145;28;20028;-49
2023/07/14 02:06:07;;;;;;;10.40;5.72;;;15.60;99.90;;;;;;5073655;28;20044;-47
2023/07/14 02:08:33;;;;;;;8.73;5.50;;;15.60;99.90;;;;;;5074105;28;20497;-49
2023/07/14 02:10:59;;;;;;;9.52;6.18;;;15.60;99.90;;;;;;5071694;28;20044;-47
2023/07/14 02:13:25;;;;;;;9.98;6.05;;;15.60;99.90;;;;;;5073481;28;20028;-48
2023/07/14 02:15:52;;;;;;;7.53;5.93;;;15.60;99.90;;;;;;5071248;28;20074;-47
2023/07/14 02:18:25;;;;;;;11.23;6.40;;;15.60;99.90;;;;;;5073288;28;20036;-46
2023/07/14 02:20:52;;;;;;;8.75;6.15;;;15.60;99.90;;;;;;5072854;28;20040;-46
2023/07/14 02:23:23;;;;;;;11.05;6.60;;;15.50;99.90;;;;;;5069514;28;20033;-50
2023/07/14 02:26:25;;;;;;;9.85;5.95;;;15.50;99.90;;;;;;5072474;28;20094;-50
2023/07/14 02:28:51;;;;;;;11.23;6.25;;;15.50;99.90;;;;;;5072903;28;20127;-48
2023/07/14 02:31:25;;;;;;;11.10;6.00;;;15.40;99.90;;;;;;5072277;28;20177;-48
2023/07/14 02:33:52;;;;;;;8.73;6.60;;;15.40;99.90;;;;;;5071544;28;20072;-49
2023/07/14 02:36:59;;;;;;;10.40;6.32;;;15.40;99.90;;;;;;5072041;28;20044;-48
2023/07/14 02:39:26;;;;;;;9.60;6.53;;;15.40;99.90;;;;;;5059022;28;20055;-49
2023/07/14 02:41:55;;;;;;;8.38;5.47;;;15.40;99.90;;;;;;5072975;28;20037;-45
2023/07/14 02:44:27;;;;;;;8.05;5.53;;;15.30;99.90;;;;;;5072672;28;20101;-50
2023/07/14 02:47:00;;;;;;;12.02;6.80;;;15.30;99.90;;;;;;5072291;28;20093;-49
2023/07/14 02:49:25;;;;;;;10.25;5.55;;;15.30;99.90;;;;;;5071426;28;20076;-45
2023/07/14 02:51:51;;;;;;;12.10;5.90;;;15.30;99.90;;;;;;5072659;28;20059;-47
2023/07/14 02:54:17;;;;;;;9.75;5.63;;;15.30;99.90;;;;;;5072521;28;20036;-48
2023/07/14 02:56:43;;;;;;;8.35;5.40;;;15.30;99.90;;;;;;5072289;28;20093;-47
2023/07/14 02:59:12;;;;;;;8.98;5.55;;;15.30;99.90;;;;;;5072699;28;20032;-45
2023/07/14 03:01:37;;;;;;;8.90;5.47;;;15.30;99.90;;;;;;5072335;28;20028;-47
2023/07/14 03:04:03;;;;;;;9.30;5.45;;;15.20;99.90;;;;;;5054546;28;20067;-49
2023/07/14 03:06:29;;;;;;;10.77;6.13;;;15.20;99.90;;;;;;5072496;28;20047;-50
2023/07/14 03:08:55;;;;;;;9.40;6.07;;;15.20;99.90;;;;;;5069438;28;20437;-50
2023/07/14 03:11:20;;;;;;;10.73;5.80;;;15.20;99.90;;;;;;5072486;28;20041;-45
2023/07/14 03:13:46;;;;;;;9.52;5.80;;;15.20;99.90;;;;;;5072737;28;20522;-50
2023/07/14 03:16:13;;;;;;;8.57;6.10;;;15.20;99.90;;;;;;5054163;28;20174;-48
2023/07/14 03:18:38;;;;;;;10.15;5.97;;;15.20;99.90;;;;;;5071898;28;20032;-49
2023/07/14 03:21:04;;;;;;;9.68;5.57;;;15.20;99.90;;;;;;5071810;28;20045;-50
2023/07/14 03:23:31;;;;;;;10.93;6.05;;;15.20;99.90;;;;;;5071436;28;20511;-49
2023/07/14 03:26:03;;;;;;;10.80;6.57;;;15.10;99.90;;;;;;5071325;28;20437;-47
2023/07/14 03:28:29;;;;;;;8.50;6.47;;;15.20;99.90;;;;;;5071316;28;20044;-47
2023/07/14 03:30:55;;;;;;;10.10;6.25;;;15.20;99.90;;;;;;5085178;28;20109;-49
2023/07/14 03:33:21;;;;;;;9.40;6.38;;;15.10;99.90;;;;;;5071401;28;20028;-48
2023/07/14 03:35:47;;;;;;;9.13;6.30;;;15.10;99.90;;;;;;5071301;28;20045;-49
2023/07/14 03:38:13;;;;;;;12.02;7.20;;;15.10;99.90;;;;;;5071683;28;20056;-46
2023/07/14 03:40:39;;;;;;;9.48;6.65;;;15.10;99.90;;;;;;5071886;28;20039;-49
2023/07/14 03:43:05;;;;;;;9.35;7.10;;;15.10;99.90;;;;;;5071188;28;20395;-47
2023/07/14 03:45:32;;;;;;;12.30;7.15;;;15.20;99.90;;;;;;5071506;28;20028;-46
2023/07/14 03:47:58;;;;;;;13.77;7.53;;;15.20;99.90;;;;;;5071180;28;20044;-46
2023/07/14 03:50:24;;;;;;;9.73;7.70;;;15.20;99.90;;;;;;5071586;28;20039;-51
2023/07/14 03:52:49;;;;;;;9.95;7.05;;;15.30;99.90;;;;;;5068760;28;20040;-47
2023/07/14 03:55:16;;;;;;;13.63;8.30;;;15.30;99.90;;;;;;5071344;28;20105;-47
2023/07/14 03:57:42;;;;;;;13.52;7.18;;;15.20;99.90;;;;;;5070382;28;20032;-46
2023/07/14 04:00:14;;;;;;;10.27;7.75;;;15.30;99.90;;;;;;5071488;28;20036;-48
2023/07/14 04:02:40;;;;;;;10.15;7.85;;;15.30;99.90;;;;;;5070690;28;20036;-47
2023/07/14 04:05:07;;;;;;;11.02;7.53;;;15.30;99.90;;;;;;5070850;28;20039;-48
2023/07/14 04:07:37;;;;;;;12.63;7.70;;;15.30;99.90;;;;;;5051626;28;20040;-49
2023/07/14 04:10:05;;;;;;;13.10;8.63;;;15.30;99.90;;;;;;5071115;28;20137;-47
2023/07/14 04:12:32;;;;;;;12.23;9.00;;;15.40;99.90;;;;;;5070381;28;20037;-48
2023/07/14 04:14:57;;;;;;;12.40;9.00;;;15.40;99.90;;;;;;5071454;28;20099;-48
2023/07/14 04:17:23;;;;;;;9.77;8.38;;;15.40;99.90;;;;;;5070056;28;20036;-48
2023/07/14 04:19:50;;;;;;;13.50;9.75;;;15.40;99.90;;;;;;5071331;28;20036;-50
2023/07/14 04:22:17;;;;;;;18.73;10.30;;;15.40;99.90;;;;;;5070282;28;20033;-47
2023/07/14 04:24:42;;;;;;;12.90;9.60;;;15.40;99.90;;;;;;5070713;28;20029;-46
2023/07/14 04:27:08;;;;;;;13.07;9.05;;;15.40;99.90;;;;;;5070273;28;20401;-49
2023/07/14 04:29:34;;;;;;;12.55;9.15;;;15.40;99.90;;;;;;5071152;28;20044;-51
2023/07/14 04:32:00;;;;;;;13.35;9.55;;;15.40;99.90;;;;;;5069608;28;20450;-48
2023/07/14 04:34:30;;;;;;;15.43;9.80;;;15.50;99.90;;;;;;5070073;28;20062;-47
2023/07/14 04:36:56;;;;;;;13.23;10.48;;;15.50;99.90;;;;;;5070283;28;20095;-46
2023/07/14 04:39:23;;;;;;;11.95;9.30;;;15.50;99.90;;;;;;5069624;28;20041;-52
2023/07/14 04:41:50;;;;;;;13.15;10.10;;;15.50;99.90;;;;;;5069119;28;20044;-50
2023/07/14 04:44:16;;;;;;;13.07;9.35;;;15.60;99.90;;;;;;5070335;28;20036;-50
2023/07/14 04:46:43;;;;;;;12.05;9.23;;;15.60;99.90;;;;;;5069644;28;20043;-48
2023/07/14 04:49:11;;;;;;;16.40;6.70;;;15.60;99.90;;;;;;5069074;28;20128;-47
2023/07/14 04:51:37;;;;;;;11.52;9.50;;;15.60;99.90;;;;;;5070404;28;20461;-48
2023/07/14 04:54:04;;;;;;;13.80;9.98;;;15.60;99.90;;;;;;5070752;28;20114;-47
2023/07/14 04:56:32;;;;;;;12.18;10.35;;;15.70;99.90;;;;;;5070575;28;20040;-46
2023/07/14 04:58:58;;;;;;;15.70;10.57;;;15.70;99.90;;;;;;5070761;28;20044;-49
2023/07/14 05:01:23;;;;;;;16.13;9.93;;;15.60;99.90;;;;;;5067934;28;20076;-47
2023/07/14 05:03:49;;;;;;;14.73;10.25;;;15.60;99.90;;;;;;5069441;28;20083;-45
2023/07/14 05:06:15;;;;;;;15.07;9.80;;;15.60;99.90;;;;;;5070545;28;20040;-49
2023/07/14 05:08:41;;;;;;;13.57;10.43;;;15.60;99.90;;;;;;5072241;28;20444;-47
2023/07/14 05:11:07;;;;;;;13.52;10.05;;;15.60;99.90;;;;;;5074729;28;20046;-48
2023/07/14 05:13:33;;;;;;;13.20;10.65;;;15.60;99.90;;;;;;5074817;28;20067;-48
2023/07/14 05:15:58;;;;;;;16.35;11.25;;;15.60;99.90;;;;;;5072962;28;20402;-50
2023/07/14 05:18:25;;;;;;;15.93;11.00;;;15.70;99.90;;;;;;5074690;28;20487;-47
2023/07/14 05:20:51;;;;;;;13.65;10.40;;;15.70;99.90;;;;;;5074475;28;20383;-46
2023/07/14 05:23:17;;;;;;;18.70;8.77;;;15.70;99.90;;;;;;5074215;28;20190;-44
2023/07/14 05:25:42;;;;;;;18.70;11.43;;;15.70;99.90;;;;;;5072991;28;20535;-49
2023/07/14 05:28:09;;;;;;;14.23;10.45;;;15.70;99.90;;;;;;5074338;28;20384;-47
2023/07/14 05:30:36;;;;;;;13.43;11.02;;;15.80;99.90;;;;;;5072913;28;20044;-52
2023/07/14 05:33:02;;;;;;;15.57;12.25;;;15.80;99.90;;;;;;5073593;28;20043;-45
2023/07/14 05:35:28;;;;;;;14.50;12.23;;;15.90;99.90;;;;;;5072827;28;20090;-47
2023/07/14 05:37:54;;;;;;;14.95;11.27;;;15.80;99.90;;;;;;5072184;28;20056;-49
2023/07/14 05:40:20;;;;;;;15.68;12.18;;;15.90;99.90;;;;;;5073865;28;20492;-49
2023/07/14 05:42:46;;;;;;;15.38;11.48;;;15.90;99.90;;;;;;5073525;28;20087;-50
2023/07/14 05:45:12;;;;;;;15.45;12.73;;;16.00;99.90;;;;;;5072982;28;20044;-47
2023/07/14 05:47:43;;;;;;;15.88;12.15;;;16.00;99.90;;;;;;5072915;28;20036;-49
2023/07/14 05:50:09;;;;;;;14.65;11.18;;;16.10;99.90;;;;;;5074133;28;20079;-47
2023/07/14 05:52:36;;;;;;;15.10;12.32;;;16.10;99.90;;;;;;5073283;28;20048;-45
2023/07/14 05:55:03;;;;;;;16.95;13.18;;;16.20;99.90;;;;;;5073879;28;20036;-47
2023/07/14 05:57:30;;;;;;;17.95;12.75;;;16.20;99.90;;;;;;5072450;28;20476;-50
2023/07/14 05:59:56;;;;;;;17.40;13.10;;;16.20;99.90;;;;;;5089265;28;20093;-48
2023/07/14 06:02:22;;;;;;;19.50;13.10;;;16.30;99.90;;;;;;5072258;28;20036;-46
2023/07/14 06:04:48;;;;;;;15.30;12.93;;;16.30;99.90;;;;;;5073691;28;20033;-50
2023/07/14 06:07:14;;;;;;;14.27;12.52;;;16.40;99.90;;;;;;5072047;28;20049;-46
2023/07/14 06:09:41;;;;;;;17.10;12.35;;;16.40;99.90;;;;;;5073271;28;20368;-49
2023/07/14 06:12:09;;;;;;;14.93;12.90;;;16.40;99.90;;;;;;5072187;28;20048;-47
2023/07/14 06:14:37;;;;;;;17.80;11.13;;;16.50;99.90;;;;;;5073435;28;20376;-48
2023/07/14 06:17:05;;;;;;;16.13;13.20;;;16.50;99.90;;;;;;5071972;28;20029;-50
2023/07/14 06:19:31;;;;;;;20.60;14.38;;;16.50;99.90;;;;;;5072613;28;20107;-46
2023/07/14 06:21:57;;;;;;;20.45;14.18;;;16.50;99.90;;;;;;5070120;28;20193;-48
2023/07/14 06:24:24;;;;;;;17.52;12.85;;;16.60;99.90;;;;;;5073612;28;20041;-47
2023/07/14 06:26:53;;;;;;;15.65;10.82;;;16.70;99.90;;;;;;5072482;28;20044;-47
2023/07/14 06:29:19;;;;;;;14.90;12.00;;;16.70;99.90;;;;;;5071612;28;20079;-48
2023/07/14 06:31:45;;;;;;;15.57;11.60;;;16.70;99.90;;;;;;5069910;28;20129;-48
2023/07/14 06:34:12;;;;;;;13.32;11.57;;;16.90;99.90;;;;;;5072603;28;20107;-45
2023/07/14 06:36:38;;;;;;;16.73;11.02;;;16.90;99.90;;;;;;5071744;28;20048;-47
2023/07/14 06:39:03;;;;;;;14.20;10.90;;;16.90;99.90;;;;;;5072526;28;20052;-49
2023/07/14 06:41:29;;;;;;;14.40;8.50;;;17.00;99.90;;;;;;5073046;28;20031;-48
2023/07/14 06:43:55;;;;;;;14.60;8.75;;;17.00;99.90;;;;;;5072752;28;20462;-46
2023/07/14 06:46:21;;;;;;;10.20;7.80;;;17.10;99.90;;;;;;5070205;28;20036;-49
2023/07/14 06:48:46;;;;;;;10.50;7.97;;;17.10;99.90;;;;;;5070458;28;20044;-46
2023/07/14 06:51:13;;;;;;;12.57;7.97;;;17.20;99.90;;;;;;5070473;28;20037;-49
2023/07/14 06:53:40;;;;;;;10.07;7.50;;;17.30;99.90;;;;;;5069308;28;20040;-48
2023/07/14 06:56:07;;;;;;;12.48;7.47;;;17.30;99.90;;;;;;5070197;28;20041;-51
2023/07/14 06:58:34;;;;;;;12.93;7.05;;;17.40;99.90;;;;;;5070507;28;20501;-51
2023/07/14 07:01:00;;;;;;;14.38;7.78;;;17.40;99.90;;;;;;5070302;28;20034;-49
2023/07/14 07:03:26;;;;;;;12.00;6.95;;;17.50;99.90;;;;;;5070079;28;20052;-47
2023/07/14 07:05:52;;;;;;;11.30;6.35;;;17.50;99.90;;;;;;5069709;28;20032;-48
2023/07/14 07:08:18;;;;;;;10.13;7.20;;;17.60;99.90;;;;;;5070221;28;20033;-46
2023/07/14 07:10:44;;;;;;;7.63;4.50;;;17.60;99.90;;;;;;5070092;28;20381;-48
2023/07/14 07:13:11;;;;;;;6.35;3.53;;;17.60;99.90;;;;;;5070467;28;20041;-47
2023/07/14 07:15:37;;;;;;;7.80;3.60;;;17.70;99.90;;;;;;5069910;28;20044;-51
2023/07/14 07:18:03;;;;;;;6.97;3.50;;;17.70;99.90;;;;;;5068942;28;20034;-51
2023/07/14 07:20:29;;;;;;;8.07;3.15;;;17.80;99.90;;;;;;5069715;28;20111;-48
2023/07/14 07:22:55;;;;;;;7.72;3.80;;;17.80;99.90;;;;;;5069592;28;20040;-48
2023/07/14 07:25:21;;;;;;;8.25;3.80;;;17.90;99.90;;;;;;5069739;28;20043;-45
2023/07/14 07:27:47;;;;;;;8.73;3.85;;;17.90;99.90;;;;;;5069073;28;20067;-50
2023/07/14 07:30:14;;;;;;;7.13;3.70;;;18.00;99.90;;;;;;5067718;28;20098;-48
2023/07/14 07:32:41;;;;;;;8.23;3.92;;;18.00;99.90;;;;;;5067744;28;20040;-50
2023/07/14 07:35:08;;;;;;;6.60;3.90;;;18.10;99.90;;;;;;5068892;28;20080;-48
2023/07/14 07:37:34;;;;;;;9.13;3.80;;;18.10;99.90;;;;;;5067598;28;20057;-48
2023/07/14 07:40:02;;;;;;;8.85;4.32;;;18.20;99.90;;;;;;5068578;28;20051;-49
2023/07/14 07:42:28;;;;;;;10.38;4.05;;;18.20;99.90;;;;;;5069926;28;20040;-47
2023/07/14 07:44:54;;;;;;;8.75;3.90;;;18.30;99.90;;;;;;5068761;28;20036;-50
2023/07/14 07:47:20;;;;;;;7.47;3.53;;;18.40;99.90;;;;;;5067771;28;20601;-50
2023/07/14 07:49:46;;;;;;;8.88;3.58;;;18.40;99.90;;;;;;5068900;28;20463;-50
2023/07/14 07:52:12;;;;;;;7.75;3.65;;;18.50;99.90;;;;;;5070101;28;20107;-50
2023/07/14 07:54:41;;;;;;;6.45;3.58;;;18.50;99.90;;;;;;5069006;28;20044;-49
2023/07/14 07:57:08;;;;;;;8.25;3.70;;;18.60;99.90;;;;;;5067950;28;20041;-49
2023/07/14 07:59:35;;;;;;;11.52;3.53;;;18.60;99.90;;;;;;5068494;28;20068;-49
2023/07/14 08:02:01;;;;;;;7.25;3.60;;;18.50;99.90;;;;;;5066466;28;20028;-51
2023/07/14 08:04:28;;;;;;;8.65;3.45;;;18.60;99.90;;;;;;5065029;28;20639;-50
2023/07/14 08:06:53;;;;;;;6.03;2.97;;;18.60;99.90;;;;;;5065431;28;20048;-47
2023/07/14 08:09:20;;;;;;;8.57;2.85;;;18.70;99.90;;;;;;5067757;28;20040;-46
2023/07/14 08:11:46;;;;;;;8.38;3.15;;;18.80;99.90;;;;;;5066177;28;20130;-46
2023/07/14 08:14:15;;;;;;;5.97;2.90;;;18.80;99.90;;;;;;5068221;28;20116;-49
2023/07/14 08:16:40;;;;;;;7.38;2.92;;;18.80;99.90;;;;;;5069919;28;20491;-48
2023/07/14 08:19:06;;;;;;;8.75;3.05;;;18.90;99.90;;;;;;5067320;28;20041;-49
2023/07/14 08:21:32;;;;;;;10.05;3.35;;;19.00;99.90;;;;;;5064251;28;20045;-50
2023/07/14 08:24:00;;;;;;;6.38;2.90;;;19.10;99.90;;;;;;5067397;28;20044;-47
2023/07/14 08:26:25;;;;;;;6.18;2.90;;;19.10;99.90;;;;;;5068076;28;20305;-51
2023/07/14 08:28:51;;;;;;;7.70;3.40;;;19.20;99.90;;;;;;5067139;28;20133;-49
2023/07/14 08:31:17;;;;;;;7.65;3.22;;;19.30;99.90;;;;;;5068204;28;20044;-50
2023/07/14 08:33:44;;;;;;;6.80;3.40;;;19.30;99.90;;;;;;5066464;28;20048;-51
2023/07/14 08:36:12;;;;;;;6.35;3.40;;;19.40;99.90;;;;;;5066850;28;20101;-48
2023/07/14 08:38:39;;;;;;;7.47;3.17;;;19.40;99.90;;;;;;5067178;28;20044;-50
2023/07/14 08:41:33;;;;;;;7.65;4.25;;;19.50;99.90;;;;;;5067910;28;20098;-51
2023/07/14 08:44:26;;;;;;;10.43;3.92;;;19.60;99.90;;;;;;5065703;28;20111;-50
2023/07/14 08:47:15;;;;;;;7.55;4.15;;;19.60;99.90;;;;;;5066739;28;20047;-48
2023/07/14 08:49:57;;;;;;;8.82;3.47;;;19.60;99.90;;;;;;5068233;28;20094;-47
2023/07/14 08:52:36;;;;;;;6.70;3.30;;;19.50;99.90;;;;;;5068693;28;20396;-48
2023/07/14 08:55:10;;;;;;;7.35;2.97;;;19.50;99.90;;;;;;5070147;28;20055;-52
2023/07/14 08:57:55;;;;;;;5.57;2.78;;;19.60;99.90;;;;;;5070712;28;20098;-48
2023/07/14 09:00:27;;;;;;;8.63;2.80;;;19.80;99.90;;;;;;5070001;28;20126;-49
2023/07/14 09:03:13;;;;;;;7.57;2.85;;;19.90;99.90;;;;;;5068866;28;20048;-48
2023/07/14 09:05:46;;;;;;;5.80;2.83;;;20.10;99.90;;;;;;5068349;28;20032;-49
2023/07/14 09:08:12;;;;;;;8.98;3.20;;;20.20;99.90;;;;;;5070322;28;20449;-46
2023/07/14 09:10:58;;;;;;;5.78;2.97;;;20.20;99.90;;;;;;5069979;28;20046;-48
2023/07/14 09:13:48;;;;;;;6.40;3.38;;;20.40;99.90;;;;;;5070448;28;20048;-52
2023/07/14 09:16:18;;;;;;;6.03;2.90;;;20.50;99.90;;;;;;5070349;28;20051;-49
2023/07/14 09:18:57;;;;;;;8.18;2.95;;;20.60;99.90;;;;;;5070616;28;20032;-46
2023/07/14 09:21:39;;;;;;;6.00;2.95;;;20.60;99.90;;;;;;5065230;28;20032;-48
2023/07/14 09:24:07;;;;;;;6.20;3.20;;;20.60;99.90;;;;;;5070240;28;20093;-47
2023/07/14 09:26:40;;;;;;;7.05;3.00;;;20.80;99.90;;;;;;5064467;28;20043;-47
2023/07/14 09:29:34;;;;;;;6.85;3.10;;;21.10;99.90;;;;;;5068500;28;20064;-46
2023/07/14 09:32:10;;;;;;;9.02;3.22;;;21.40;99.90;;;;;;5068706;28;20047;-46
2023/07/14 09:34:42;;;;;;;7.63;2.85;;;21.60;99.90;;;;;;5070044;28;20048;-50
2023/07/14 09:37:33;;;;;;;7.95;2.97;;;21.70;99.90;;;;;;5070354;28;20036;-51
2023/07/14 09:40:18;;;;;;;8.60;2.97;;;21.80;99.90;;;;;;5064150;28;20484;-46
2023/07/14 09:42:46;;;;;;;;;;;21.80;99.90;;;;;;5071121;28;20451;-49
2023/07/14 09:45:21;;;;;;;9.27;3.50;;;21.70;99.90;;;;;;5064704;28;19916;-50
2023/07/14 09:47:52;;;;;;;7.13;3.05;;;21.60;99.90;;;;;;5069472;28;20123;-51
2023/07/14 09:50:19;;;;;;;6.60;2.83;;;21.70;99.90;;;;;;5068216;28;20037;-48
2023/07/14 09:52:53;;;;;;;7.22;3.08;;;21.70;99.90;;;;;;5068286;28;20094;-48
2023/07/14 09:55:19;;;;;;;6.75;3.40;;;21.80;99.90;;;;;;5070087;28;20495;-47
2023/07/14 09:57:49;;;;;;;7.57;3.85;;;21.80;99.90;;;;;;5072372;28;20052;-51
2023/07/14 10:00:20;;;;;;;7.53;3.40;;;21.90;99.90;;;;;;5065187;28;20044;-51
2023/07/14 10:02:50;;;;;;;6.40;3.40;;;22.10;99.90;;;;;;5070541;28;20373;-51
2023/07/14 10:05:36;;;;;;;6.00;3.10;;;22.10;99.90;;;;;;5070321;28;20029;-48
2023/07/14 10:08:26;;;;;;;6.13;3.28;;;22.10;99.90;;;;;;5069571;28;20246;-50
2023/07/14 10:10:55;;;;;;;6.68;2.95;;;21.90;99.90;;;;;;5071890;28;20040;-48
2023/07/14 10:13:26;;;;;;;8.98;3.90;;;21.80;99.90;;;;;;5070659;28;20107;-51
2023/07/14 10:16:03;;;;;;;6.38;3.50;;;21.80;99.90;;;;;;5071065;28;20032;-48
2023/07/14 10:18:30;;;;;;;6.18;3.40;;;22.00;99.90;;;;;;5069846;28;20040;-47
2023/07/14 10:21:06;;;;;;;8.40;4.10;;;22.20;99.90;;;;;;5070655;28;20040;-48
2023/07/14 10:23:33;;;;;;;7.60;4.07;;;22.30;99.90;;;;;;5069604;28;20036;-49
2023/07/14 10:26:00;;;;;;;7.60;4.10;;;22.20;99.90;;;;;;5069701;28;20029;-50
2023/07/14 10:28:29;;;;;;;7.75;4.15;;;22.20;99.90;;;;;;5070703;28;20102;-48
2023/07/14 10:31:01;;;;;;;8.45;3.92;;;22.30;99.90;;;;;;5071028;28;20479;-51
2023/07/14 10:33:42;;;;;;;8.43;3.63;;;22.60;99.90;;;;;;5070671;28;20072;-51
2023/07/14 10:36:14;;;;;;;6.57;3.20;;;22.80;99.90;;;;;;5069039;28;20036;-50
2023/07/14 10:39:01;;;;;;;8.60;3.55;;;22.70;99.90;;;;;;5084490;28;20090;-46
2023/07/14 10:41:28;;;;;;;7.40;3.70;;;22.60;99.90;;;;;;5070926;28;20941;-50
2023/07/14 10:44:01;;;;;;;8.15;3.58;;;22.60;99.90;;;;;;5070754;28;20457;-47
2023/07/14 10:46:37;;;;;;;6.57;3.70;;;22.70;99.90;;;;;;5069515;28;20493;-48
2023/07/14 10:49:26;;;;;;;6.68;3.60;;;22.90;99.90;;;;;;5069957;28;20112;-46
2023/07/14 10:51:58;;;;;;;7.72;4.18;;;22.90;99.90;;;;;;5069523;28;20042;-46
2023/07/14 10:54:42;;;;;;;10.68;4.10;;;22.80;99.90;;;;;;5069868;28;20491;-49
2023/07/14 10:57:49;;;;;;;8.38;3.50;;;22.90;99.90;;;;;;5071013;28;20041;-53
2023/07/14 11:00:25;;;;;;;7.50;3.80;;;23.20;99.90;;;;;;5066309;28;20515;-49
2023/07/14 11:03:29;;;;;;;7.28;4.25;;;23.10;99.90;;;;;;5069912;28;20037;-47
2023/07/14 11:06:15;;;;;;;6.72;3.83;;;23.20;99.90;;;;;;5068956;28;20103;-48
2023/07/14 11:08:41;;;;;;;7.95;3.83;;;23.50;99.90;;;;;;5070587;28;20036;-50
2023/07/14 11:11:19;;;;;;;9.68;3.75;;;23.60;99.90;;;;;;5069358;28;20040;-47
2023/07/14 11:13:48;;;;;;;7.28;3.63;;;23.60;99.90;;;;;;5069962;28;20036;-49
2023/07/14 11:16:26;;;;;;;7.25;3.78;;;23.60;99.90;;;;;;5069497;28;20084;-47
2023/07/14 11:19:06;;;;;;;9.27;4.15;;;23.70;99.90;;;;;;5070311;28;20055;-49
2023/07/14 11:21:43;;;;;;;7.30;3.50;;;23.70;99.90;;;;;;5069516;28;20029;-49
2023/07/14 11:24:24;;;;;;;7.90;3.35;;;23.70;99.90;;;;;;5069009;28;20133;-51
2023/07/14 11:27:15;;;;;;;8.77;3.63;;;23.80;99.90;;;;;;5067146;28;20032;-47
2023/07/14 11:29:56;;;;;;;8.98;4.07;;;24.10;99.90;;;;;;5068132;28;20067;-47
2023/07/14 11:32:28;;;;;;;8.18;4.07;;;24.10;99.90;;;;;;5069210;28;20040;-47
2023/07/14 11:35:02;;;;;;;7.05;4.13;;;24.00;99.90;;;;;;5071161;28;20044;-49
2023/07/14 11:37:37;;;;;;;8.88;4.35;;;23.90;99.90;;;;;;5057141;28;20125;-49
2023/07/14 11:40:20;;;;;;;8.10;4.68;;;23.70;99.90;;;;;;5065188;28;20074;-50
2023/07/14 11:42:53;;;;;;;7.28;4.22;;;23.50;99.90;;;;;;5067357;28;20033;-50
2023/07/14 11:45:22;;;;;;;7.18;4.10;;;23.40;99.90;;;;;;5069178;28;20090;-51
2023/07/14 11:47:49;;;;;;;7.63;4.07;;;23.40;99.90;;;;;;5069148;28;20123;-48
2023/07/14 11:50:18;;;;;;;8.27;4.10;;;23.40;99.90;;;;;;5069527;28;20452;-52
2023/07/14 11:53:04;;;;;;;8.43;4.75;;;23.50;99.90;;;;;;5069166;28;20502;-51
2023/07/14 11:55:32;;;;;;;9.85;4.72;;;23.50;99.90;;;;;;5069561;28;20047;-49
2023/07/14 11:58:30;;;;;;;10.05;5.28;;;23.60;99.90;;;;;;5070949;28;20036;-48
2023/07/14 12:01:03;;;;;;;9.27;4.55;;;23.70;99.90;;;;;;5071496;28;20376;-51
2023/07/14 12:03:41;;;;;;;7.95;4.72;;;23.60;99.90;;;;;;5071324;28;20044;-48
2023/07/14 12:06:19;;;;;;;11.25;5.07;;;23.60;99.90;;;;;;5071529;28;20084;-51
2023/07/14 12:09:04;;;;;;;8.80;4.50;;;23.50;99.90;;;;;;5071271;28;20102;-50
2023/07/14 12:11:53;;;;;;;8.40;4.18;;;23.40;99.90;;;;;;5071089;28;20131;-49
2023/07/14 12:14:25;;;;;;;8.52;4.65;;;23.50;99.90;;;;;;5070355;28;20492;-50
2023/07/14 12:16:50;;;;;;;9.95;4.25;;;23.50;99.90;;;;;;5071241;28;20037;-46
2023/07/14 12:19:31;;;;;;;7.38;3.85;;;23.50;99.90;;;;;;5070498;28;20563;-47
2023/07/14 12:22:07;;;;;;;8.35;3.95;;;23.60;99.90;;;;;;5070605;28;20040;-50
2023/07/14 12:24:48;;;;;;;8.60;4.00;;;23.60;99.90;;;;;;5071325;28;20434;-46
2023/07/14 12:27:35;;;;;;;8.30;3.83;;;23.60;99.90;;;;;;5071165;28;20080;-49
2023/07/14 12:30:17;;;;;;;9.20;3.95;;;23.70;99.90;;;;;;5070856;28;20124;-50
2023/07/14 12:32:43;;;;;;;8.65;3.70;;;23.80;99.90;;;;;;5071112;28;20064;-51
2023/07/14 12:35:17;;;;;;;8.50;4.45;;;24.00;99.90;;;;;;5070835;28;20087;-49
2023/07/14 12:37:44;;;;;;;7.13;3.67;;;24.10;99.90;;;;;;5071064;28;20141;-50
2023/07/14 12:40:20;;;;;;;9.75;3.58;;;24.20;99.90;;;;;;5070483;28;20447;-50
2023/07/14 12:42:48;;;;;;;9.90;4.00;;;24.30;99.90;;;;;;5069789;28;20078;-47
2023/07/14 12:45:18;;;;;;;7.40;3.40;;;24.30;99.90;;;;;;5070791;28;20064;-51
2023/07/14 12:47:49;;;;;;;9.25;3.88;;;24.20;99.90;;;;;;5070689;28;20452;-50
2023/07/14 12:50:17;;;;;;;8.70;3.58;;;24.10;99.90;;;;;;5069099;28;20109;-48
2023/07/14 12:52:44;;;;;;;7.20;4.10;;;23.90;99.90;;;;;;5070284;28;20279;-52
2023/07/14 12:55:18;;;;;;;10.90;3.55;;;23.70;99.90;;;;;;5071178;28;20192;-45
2023/07/14 12:57:45;;;;;;;8.15;3.45;;;23.60;99.90;;;;;;5070404;28;20455;-49